createdAt,value
2018-09-02T00:02:00.038Z,102282.00
2018-09-02T00:04:28.835Z,102283.00
2018-09-02T00:06:57.641Z,102286.00
2018-09-02T00:09:26.455Z,102290.00
2018-09-02T00:11:55.241Z,102283.00
2018-09-02T00:14:24.239Z,102285.00
2018-09-02T00:16:53.075Z,102289.00
2018-09-02T00:19:21.857Z,102287.00
2018-09-02T00:21:50.700Z,102295.00
2018-09-02T00:24:19.789Z,102300.00
2018-09-02T00:26:48.592Z,102302.00
2018-09-02T00:29:17.469Z,102292.00
2018-09-02T00:31:46.359Z,102289.00
2018-09-02T00:34:15.155Z,102294.00
2018-09-02T00:36:44.200Z,102284.00
2018-09-02T00:39:13.598Z,102288.00
2018-09-02T00:41:42.382Z,102292.00
2018-09-02T00:44:11.164Z,102291.00
2018-09-02T00:46:39.963Z,102295.00
2018-09-02T00:49:08.763Z,102293.00
2018-09-02T00:51:37.565Z,102301.00
2018-09-02T00:54:06.549Z,102290.00
2018-09-02T00:56:35.341Z,102285.00
2018-09-02T00:59:04.519Z,102282.00
2018-09-02T01:01:33.326Z,102281.00
2018-09-02T01:04:02.128Z,102278.00
2018-09-02T01:06:30.951Z,102275.00
2018-09-02T01:08:59.783Z,102285.00
2018-09-02T01:11:28.592Z,102279.00
2018-09-02T01:13:57.411Z,102280.00
2018-09-02T01:16:26.209Z,102283.00
2018-09-02T01:18:55.014Z,102282.00
2018-09-02T01:21:23.970Z,102277.00
2018-09-02T01:23:52.771Z,102277.00
2018-09-02T01:26:21.564Z,102267.00
2018-09-02T01:28:50.403Z,102266.00
2018-09-02T01:31:19.202Z,102258.00
2018-09-02T01:33:48.069Z,102261.00
2018-09-02T01:36:16.883Z,102252.00
2018-09-02T01:38:45.700Z,102250.00
2018-09-02T01:41:14.910Z,102259.00
2018-09-02T01:43:46.861Z,102258.00
2018-09-02T01:46:15.689Z,102262.00
2018-09-02T01:48:44.520Z,102263.00
2018-09-02T01:51:13.313Z,102265.00
2018-09-02T01:53:42.119Z,102259.00
2018-09-02T01:56:10.919Z,102265.00
2018-09-02T01:58:39.817Z,102259.00
2018-09-02T02:01:08.641Z,102264.00
2018-09-02T02:03:37.557Z,102270.00
2018-09-02T02:06:06.425Z,102273.00
2018-09-02T02:08:35.310Z,102271.00
2018-09-02T02:11:04.137Z,102263.00
2018-09-02T02:13:32.951Z,102264.00
2018-09-02T02:16:01.738Z,102260.00
2018-09-02T02:18:30.538Z,102273.00
2018-09-02T02:20:59.362Z,102262.00
2018-09-02T02:23:28.307Z,102265.00
2018-09-02T02:25:57.336Z,102250.00
2018-09-02T02:28:26.139Z,102260.00
2018-09-02T02:30:54.938Z,102253.00
2018-09-02T02:33:30.370Z,102257.00
2018-09-02T02:36:00.196Z,102255.00
2018-09-02T02:38:29.017Z,102256.00
2018-09-02T02:40:57.835Z,102254.00
2018-09-02T02:43:26.950Z,102245.00
2018-09-02T02:45:55.738Z,102246.00
2018-09-02T02:48:24.656Z,102257.00
2018-09-02T02:50:53.456Z,102256.00
2018-09-02T02:53:22.349Z,102255.00
2018-09-02T02:55:52.406Z,102257.00
2018-09-02T02:58:21.199Z,102242.00
2018-09-02T03:00:50.057Z,102240.00
2018-09-02T03:03:18.883Z,102237.00
2018-09-02T03:05:47.697Z,102234.00
2018-09-02T03:08:16.568Z,102242.00
2018-09-02T03:10:45.613Z,102239.00
2018-09-02T03:13:14.362Z,102252.00
2018-09-02T03:15:43.145Z,102255.00
2018-09-02T03:18:11.951Z,102246.00
2018-09-02T03:20:40.769Z,102240.00
2018-09-02T03:23:09.542Z,102246.00
2018-09-02T03:25:38.362Z,102236.00
2018-09-02T03:28:07.205Z,102236.00
2018-09-02T03:30:36.009Z,102230.00
2018-09-02T03:33:05.174Z,102236.00
2018-09-02T03:35:33.966Z,102237.00
2018-09-02T03:38:02.744Z,102233.00
2018-09-02T03:40:31.551Z,102240.00
2018-09-02T03:43:00.368Z,102244.00
2018-09-02T03:45:29.776Z,102252.00
2018-09-02T03:47:58.603Z,102247.00
2018-09-02T03:50:27.395Z,102237.00
2018-09-02T03:52:56.176Z,102238.00
2018-09-02T03:55:25.097Z,102230.00
2018-09-02T03:57:53.881Z,102238.00
2018-09-02T04:00:22.688Z,102242.00
2018-09-02T04:02:51.620Z,102231.00
2018-09-02T04:05:20.439Z,102234.00
2018-09-02T04:07:49.246Z,102222.00
2018-09-02T04:10:18.141Z,102231.00
2018-09-02T04:12:46.977Z,102234.00
2018-09-02T04:15:15.766Z,102225.00
2018-09-02T04:17:44.915Z,102237.00
2018-09-02T04:20:13.732Z,102232.00
2018-09-02T04:22:42.539Z,102227.00
2018-09-02T04:25:11.371Z,102240.00
2018-09-02T04:27:40.170Z,102237.00
2018-09-02T04:30:08.982Z,102231.00
2018-09-02T04:32:37.791Z,102238.00
2018-09-02T04:35:08.246Z,102239.00
2018-09-02T04:37:37.059Z,102249.00
2018-09-02T04:40:07.179Z,102240.00
2018-09-02T04:42:35.965Z,102239.00
2018-09-02T04:45:04.865Z,102242.00
2018-09-02T04:47:34.153Z,102239.00
2018-09-02T04:50:11.945Z,102249.00
2018-09-02T04:52:40.734Z,102244.00
2018-09-02T04:55:09.608Z,102244.00
2018-09-02T04:57:38.476Z,102237.00
2018-09-02T05:00:09.097Z,102239.00
2018-09-02T05:02:37.862Z,102248.00
2018-09-02T05:05:08.584Z,102234.00
2018-09-02T05:07:37.467Z,102235.00
2018-09-02T05:10:07.631Z,102229.00
2018-09-02T05:12:36.441Z,102229.00
2018-09-02T05:15:05.288Z,102242.00
2018-09-02T05:17:34.571Z,102239.00
2018-09-02T05:20:03.398Z,102237.00
2018-09-02T05:22:32.457Z,102248.00
2018-09-02T05:25:01.278Z,102235.00
2018-09-02T05:27:30.103Z,102239.00
2018-09-02T05:29:58.935Z,102241.00
2018-09-02T05:32:27.775Z,102240.00
2018-09-02T05:34:56.604Z,102234.00
2018-09-02T05:37:26.314Z,102245.00
2018-09-02T05:39:55.128Z,102238.00
2018-09-02T05:42:23.939Z,102227.00
2018-09-02T05:44:53.090Z,102237.00
2018-09-02T05:47:21.889Z,102249.00
2018-09-02T05:49:51.175Z,102236.00
2018-09-02T05:52:20.234Z,102245.00
2018-09-02T05:54:52.048Z,102245.00
2018-09-02T05:57:20.865Z,102238.00
2018-09-02T05:59:49.700Z,102245.00
2018-09-02T06:02:18.526Z,102241.00
2018-09-02T06:04:47.330Z,102235.00
2018-09-02T06:07:16.395Z,102235.00
2018-09-02T06:09:45.190Z,102232.00
2018-09-02T06:12:13.985Z,102232.00
2018-09-02T06:14:42.819Z,102232.00
2018-09-02T06:17:11.700Z,102226.00
2018-09-02T06:19:40.453Z,102226.00
2018-09-02T06:22:09.263Z,102223.00
2018-09-02T06:24:38.058Z,102221.00
2018-09-02T06:27:06.915Z,102225.00
2018-09-02T06:29:35.848Z,102227.00
2018-09-02T06:32:04.650Z,102227.00
2018-09-02T06:34:36.495Z,102225.00
2018-09-02T06:37:05.918Z,102221.00
2018-09-02T06:39:37.824Z,102218.00
2018-09-02T06:42:06.613Z,102221.00
2018-09-02T06:44:35.454Z,102220.00
2018-09-02T06:47:04.249Z,102210.00
2018-09-02T06:49:33.067Z,102208.00
2018-09-02T06:52:02.481Z,102214.00
2018-09-02T06:54:31.275Z,102215.00
2018-09-02T06:57:00.099Z,102217.00
2018-09-02T06:59:29.973Z,102206.00
2018-09-02T07:01:58.784Z,102216.00
2018-09-02T07:04:27.598Z,102222.00
2018-09-02T07:06:56.437Z,102216.00
2018-09-02T07:09:25.235Z,102219.00
2018-09-02T07:11:54.070Z,102219.00
2018-09-02T07:14:23.250Z,102207.00
2018-09-02T07:16:52.010Z,102211.00
2018-09-02T07:19:20.805Z,102215.00
2018-09-02T07:21:49.669Z,102214.00
2018-09-02T07:24:18.481Z,102216.00
2018-09-02T07:26:47.274Z,102207.00
2018-09-02T07:29:16.080Z,102210.00
2018-09-02T07:31:44.895Z,102221.00
2018-09-02T07:34:13.710Z,102225.00
2018-09-02T07:36:42.623Z,102228.00
2018-09-02T07:39:11.421Z,102219.00
2018-09-02T07:41:40.256Z,102223.00
2018-09-02T07:44:09.155Z,102219.00
2018-09-02T07:46:37.913Z,102223.00
2018-09-02T07:49:06.726Z,102213.00
2018-09-02T07:51:35.616Z,102222.00
2018-09-02T07:54:05.035Z,102224.00
2018-09-02T07:56:33.844Z,102209.00
2018-09-02T07:59:02.938Z,102212.00
2018-09-02T08:01:31.787Z,102220.00
2018-09-02T08:04:00.578Z,102213.00
2018-09-02T08:06:29.395Z,102212.00
2018-09-02T08:08:58.222Z,102223.00
2018-09-02T08:11:27.116Z,102216.00
2018-09-02T08:13:55.930Z,102222.00
2018-09-02T08:16:24.831Z,102225.00
2018-09-02T08:18:53.770Z,102215.00
2018-09-02T08:21:23.079Z,102218.00
2018-09-02T08:23:51.911Z,102208.00
2018-09-02T08:26:20.769Z,102215.00
2018-09-02T08:28:49.585Z,102206.00
2018-09-02T08:31:18.392Z,102218.00
2018-09-02T08:33:47.284Z,102220.00
2018-09-02T08:36:16.108Z,102215.00
2018-09-02T08:38:44.934Z,102221.00
2018-09-02T08:41:13.812Z,102211.00
2018-09-02T08:43:42.725Z,102218.00
2018-09-02T08:46:11.555Z,102221.00
2018-09-02T08:48:40.321Z,102214.00
2018-09-02T08:51:09.192Z,102214.00
2018-09-02T08:53:41.052Z,102226.00
2018-09-02T08:56:10.220Z,102221.00
2018-09-02T08:58:39.084Z,102222.00
2018-09-02T09:01:07.895Z,102219.00
2018-09-02T09:03:36.834Z,102219.00
2018-09-02T09:06:05.775Z,102215.00
2018-09-02T09:08:34.663Z,102187.00
2018-09-02T09:11:03.417Z,102209.00
2018-09-02T09:13:32.238Z,102211.00
2018-09-02T09:16:01.084Z,102213.00
2018-09-02T09:18:29.898Z,102205.00
2018-09-02T09:20:58.706Z,102209.00
2018-09-02T09:23:27.501Z,102202.00
2018-09-02T09:25:56.677Z,102199.00
2018-09-02T09:28:25.455Z,102201.00
2018-09-02T09:30:54.246Z,102202.00
2018-09-02T09:33:23.067Z,102217.00
2018-09-02T09:35:51.891Z,102204.00
2018-09-02T09:38:20.701Z,102216.00
2018-09-02T09:40:49.519Z,102210.00
2018-09-02T09:43:18.428Z,102209.00
2018-09-02T09:45:47.266Z,102206.00
2018-09-02T09:48:16.412Z,102207.00
2018-09-02T09:50:45.203Z,102209.00
2018-09-02T09:53:13.994Z,102191.00
2018-09-02T09:55:42.869Z,102190.00
2018-09-02T09:58:12.166Z,102191.00
2018-09-02T10:00:46.351Z,102195.00
2018-09-02T10:03:15.187Z,102180.00
2018-09-02T10:05:43.964Z,102189.00
2018-09-02T10:08:13.595Z,102186.00
2018-09-02T10:10:42.655Z,102191.00
2018-09-02T10:13:11.478Z,102186.00
2018-09-02T10:15:40.277Z,102189.00
2018-09-02T10:18:09.088Z,102180.00
2018-09-02T10:20:37.821Z,102178.00
2018-09-02T10:23:06.629Z,102168.00
2018-09-02T10:25:35.496Z,102160.00
2018-09-02T10:28:04.316Z,102162.00
2018-09-02T10:30:33.374Z,102157.00
2018-09-02T10:33:02.175Z,102161.00
2018-09-02T10:35:31.040Z,102158.00
2018-09-02T10:37:59.851Z,102155.00
2018-09-02T10:40:28.642Z,102140.00
2018-09-02T10:42:57.448Z,102155.00
2018-09-02T10:45:26.251Z,102147.00
2018-09-02T10:47:55.014Z,102148.00
2018-09-02T10:50:23.818Z,102138.00
2018-09-02T10:52:53.004Z,102125.00
2018-09-02T10:55:21.791Z,102112.00
2018-09-02T10:57:50.623Z,102106.00
2018-09-02T11:00:19.732Z,102099.00
2018-09-02T11:02:48.537Z,102101.00
2018-09-02T11:05:17.350Z,102099.00
2018-09-02T11:07:46.231Z,102087.00
2018-09-02T11:10:15.026Z,102091.00
2018-09-02T11:12:43.815Z,102071.00
2018-09-02T11:15:13.920Z,102077.00
2018-09-02T11:17:42.796Z,102057.00
2018-09-02T11:20:11.595Z,102069.00
2018-09-02T11:22:40.395Z,102066.00
2018-09-02T11:25:09.188Z,102067.00
2018-09-02T11:27:37.963Z,102061.00
2018-09-02T11:30:08.558Z,102063.00
2018-09-02T11:32:37.352Z,102050.00
2018-09-02T11:35:07.270Z,102042.00
2018-09-02T11:37:36.217Z,102041.00
2018-09-02T11:40:05.027Z,102036.00
2018-09-02T11:42:33.832Z,102030.00
2018-09-02T11:45:02.689Z,102034.00
2018-09-02T11:47:31.467Z,102016.00
2018-09-02T11:50:00.259Z,102019.00
2018-09-02T11:52:29.080Z,102017.00
2018-09-02T11:54:57.867Z,102025.00
2018-09-02T11:57:26.658Z,102027.00
2018-09-02T11:59:55.807Z,102021.00
2018-09-02T12:02:25.159Z,102003.00
2018-09-02T12:04:54.058Z,102010.00
2018-09-02T12:07:29.515Z,102011.00
2018-09-02T12:09:58.328Z,102000.00
2018-09-02T12:12:27.117Z,101995.00
2018-09-02T12:14:56.247Z,102000.00
2018-09-02T12:17:24.976Z,102004.00
2018-09-02T12:19:53.776Z,102009.00
2018-09-02T12:22:22.634Z,102002.00
2018-09-02T12:24:51.443Z,102010.00
2018-09-02T12:27:20.227Z,101999.00
2018-09-02T12:29:49.042Z,102006.00
2018-09-02T12:32:17.847Z,101995.00
2018-09-02T12:34:46.742Z,101999.00
2018-09-02T12:37:15.827Z,101998.00
2018-09-02T12:39:44.642Z,101992.00
2018-09-02T12:42:13.500Z,101988.00
2018-09-02T12:44:42.254Z,101980.00
2018-09-02T12:47:11.067Z,101989.00
2018-09-02T12:49:39.877Z,101983.00
2018-09-02T12:52:08.701Z,101972.00
2018-09-02T12:54:37.501Z,101969.00
2018-09-02T12:57:06.395Z,101967.00
2018-09-02T12:59:35.527Z,101970.00
2018-09-02T13:02:04.311Z,101977.00
2018-09-02T13:04:33.538Z,101978.00
2018-09-02T13:07:02.379Z,101979.00
2018-09-02T13:09:31.280Z,101965.00
2018-09-02T13:12:00.015Z,101974.00
2018-09-02T13:14:28.927Z,101969.00
2018-09-02T13:16:57.736Z,101980.00
2018-09-02T13:19:26.535Z,101974.00
2018-09-02T13:21:55.832Z,101972.00
2018-09-02T13:24:24.666Z,101975.00
2018-09-02T13:26:53.495Z,101982.00
2018-09-02T13:29:22.339Z,101972.00
2018-09-02T13:31:51.304Z,101980.00
2018-09-02T13:34:19.997Z,101968.00
2018-09-02T13:36:48.818Z,101975.00
2018-09-02T13:39:17.624Z,101966.00
2018-09-02T13:41:46.447Z,101958.00
2018-09-02T13:44:15.589Z,101971.00
2018-09-02T13:46:44.458Z,101969.00
2018-09-02T13:49:13.242Z,101961.00
2018-09-02T13:51:42.038Z,101957.00
2018-09-02T13:54:10.844Z,101959.00
2018-09-02T13:56:39.627Z,101959.00
2018-09-02T13:59:08.457Z,101957.00
2018-09-02T14:01:37.248Z,101958.00
2018-09-02T14:04:06.032Z,101956.00
2018-09-02T14:06:35.656Z,101956.00
2018-09-02T14:09:05.740Z,101943.00
2018-09-02T14:11:34.543Z,101945.00
2018-09-02T14:14:03.345Z,101940.00
2018-09-02T14:16:32.153Z,101938.00
2018-09-02T14:19:01.014Z,101935.00
2018-09-02T14:21:29.834Z,101934.00
2018-09-02T14:23:58.670Z,101935.00
2018-09-02T14:26:27.475Z,101931.00
2018-09-02T14:28:56.734Z,101930.00
2018-09-02T14:31:25.560Z,101922.00
2018-09-02T14:33:54.382Z,101922.00
2018-09-02T14:36:23.246Z,101920.00
2018-09-02T14:38:52.431Z,101914.00
2018-09-02T14:41:21.229Z,101919.00
2018-09-02T14:43:50.166Z,101911.00
2018-09-02T14:46:18.968Z,101907.00
2018-09-02T14:48:47.767Z,101899.00
2018-09-02T14:51:16.969Z,101910.00
2018-09-02T14:53:52.030Z,101909.00
2018-09-02T14:56:20.890Z,101913.00
2018-09-02T14:58:49.679Z,101908.00
2018-09-02T15:01:18.470Z,101917.00
2018-09-02T15:03:47.284Z,101917.00
2018-09-02T15:06:16.094Z,101899.00
2018-09-02T15:08:45.445Z,101900.00
2018-09-02T15:11:14.774Z,101901.00
2018-09-02T15:13:43.740Z,101905.00
2018-09-02T15:16:12.933Z,101900.00
2018-09-02T15:18:41.752Z,101901.00
2018-09-02T15:21:10.643Z,101904.00
2018-09-02T15:23:39.378Z,101906.00
2018-09-02T15:26:08.228Z,101899.00
2018-09-02T15:28:37.037Z,101887.00
2018-09-02T15:31:05.925Z,101897.00
2018-09-02T15:33:35.127Z,101888.00
2018-09-02T15:36:03.991Z,101895.00
2018-09-02T15:38:32.779Z,101888.00
2018-09-02T15:41:01.608Z,101888.00
2018-09-02T15:43:30.423Z,101882.00
2018-09-02T15:45:59.207Z,101875.00
2018-09-02T15:48:28.909Z,101871.00
2018-09-02T15:50:57.715Z,101879.00
2018-09-02T15:53:26.517Z,101873.00
2018-09-02T15:55:55.533Z,101885.00
2018-09-02T15:58:24.331Z,101882.00
2018-09-02T16:00:53.716Z,101882.00
2018-09-02T16:03:22.489Z,101872.00
2018-09-02T16:05:51.304Z,101879.00
2018-09-02T16:08:20.216Z,101886.00
2018-09-02T16:10:49.777Z,101878.00
2018-09-02T16:13:18.555Z,101882.00
2018-09-02T16:15:47.375Z,101883.00
2018-09-02T16:18:16.553Z,101878.00
2018-09-02T16:20:45.403Z,101880.00
2018-09-02T16:23:14.202Z,101876.00
2018-09-02T16:25:43.010Z,101865.00
2018-09-02T16:28:11.860Z,101860.00
2018-09-02T16:30:40.687Z,101870.00
2018-09-02T16:33:09.515Z,101865.00
2018-09-02T16:35:38.352Z,101861.00
2018-09-02T16:38:07.170Z,101872.00
2018-09-02T16:40:36.357Z,101869.00
2018-09-02T16:43:05.703Z,101857.00
2018-09-02T16:45:34.547Z,101862.00
2018-09-02T16:48:03.366Z,101859.00
2018-09-02T16:50:32.166Z,101870.00
2018-09-02T16:53:01.207Z,101872.00
2018-09-02T16:55:30.977Z,101872.00
2018-09-02T16:57:59.784Z,101878.00
2018-09-02T17:00:28.601Z,101870.00
2018-09-02T17:02:58.245Z,101869.00
2018-09-02T17:05:27.120Z,101858.00
2018-09-02T17:07:55.930Z,101870.00
2018-09-02T17:10:24.740Z,101864.00
2018-09-02T17:12:53.867Z,101870.00
2018-09-02T17:15:22.623Z,101864.00
2018-09-02T17:17:51.423Z,101863.00
2018-09-02T17:20:24.448Z,101865.00
2018-09-02T17:22:57.131Z,101863.00
2018-09-02T17:25:25.956Z,101861.00
2018-09-02T17:27:54.787Z,101855.00
2018-09-02T17:30:23.617Z,101857.00
2018-09-02T17:32:52.423Z,101854.00
2018-09-02T17:35:21.318Z,101856.00
2018-09-02T17:37:50.131Z,101855.00
2018-09-02T17:40:18.929Z,101852.00
2018-09-02T17:42:47.779Z,101852.00
2018-09-02T17:45:16.850Z,101852.00
2018-09-02T17:47:45.649Z,101858.00
2018-09-02T17:50:14.533Z,101859.00
2018-09-02T17:52:43.337Z,101848.00
2018-09-02T17:55:12.166Z,101848.00
2018-09-02T17:57:41.045Z,101849.00
2018-09-02T18:00:11.971Z,101852.00
2018-09-02T18:02:40.782Z,101850.00
2018-09-02T18:05:10.729Z,101857.00
2018-09-02T18:07:39.687Z,101859.00
2018-09-02T18:10:09.109Z,101848.00
2018-09-02T18:12:37.893Z,101844.00
2018-09-02T18:15:07.367Z,101855.00
2018-09-02T18:17:36.188Z,101860.00
2018-09-02T18:20:05.266Z,101860.00
2018-09-02T18:22:34.083Z,101861.00
2018-09-02T18:25:02.903Z,101861.00
2018-09-02T18:27:34.117Z,101870.00
2018-09-02T18:30:03.041Z,101865.00
2018-09-02T18:32:32.247Z,101862.00
2018-09-02T18:35:01.516Z,101878.00
2018-09-02T18:37:30.629Z,101858.00
2018-09-02T18:39:59.445Z,101869.00
2018-09-02T18:42:35.138Z,101873.00
2018-09-02T18:45:04.003Z,101857.00
2018-09-02T18:47:32.819Z,101857.00
2018-09-02T18:50:01.736Z,101855.00
2018-09-02T18:52:30.531Z,101871.00
2018-09-02T18:54:59.330Z,101870.00
2018-09-02T18:57:28.159Z,101869.00
2018-09-02T18:59:57.956Z,101858.00
2018-09-02T19:02:26.774Z,101869.00
2018-09-02T19:04:55.611Z,101858.00
2018-09-02T19:07:24.455Z,101865.00
2018-09-02T19:09:53.290Z,101860.00
2018-09-02T19:12:22.561Z,101854.00
2018-09-02T19:14:51.364Z,101869.00
2018-09-02T19:17:20.556Z,101857.00
2018-09-02T19:19:49.389Z,101855.00
2018-09-02T19:22:18.250Z,101853.00
2018-09-02T19:24:47.064Z,101855.00
2018-09-02T19:27:15.887Z,101850.00
2018-09-02T19:29:44.707Z,101855.00
2018-09-02T19:32:13.486Z,101845.00
2018-09-02T19:34:42.766Z,101846.00
2018-09-02T19:37:11.578Z,101840.00
2018-09-02T19:39:40.447Z,101839.00
2018-09-02T19:42:09.327Z,101832.00
2018-09-02T19:44:38.136Z,101836.00
2018-09-02T19:47:06.947Z,101824.00
2018-09-02T19:49:35.776Z,101815.00
2018-09-02T19:52:04.610Z,101817.00
2018-09-02T19:54:33.462Z,101809.00
2018-09-02T19:57:02.560Z,101811.00
2018-09-02T19:59:31.410Z,101814.00
2018-09-02T20:02:00.235Z,101814.00
2018-09-02T20:04:29.059Z,101809.00
2018-09-02T20:06:57.858Z,101807.00
2018-09-02T20:09:26.643Z,101812.00
2018-09-02T20:11:55.461Z,101810.00
2018-09-02T20:14:24.259Z,101804.00
2018-09-02T20:16:53.115Z,101803.00
2018-09-02T20:19:22.639Z,101802.00
2018-09-02T20:21:51.426Z,101802.00
2018-09-02T20:24:20.625Z,101792.00
2018-09-02T20:26:49.428Z,101786.00
2018-09-02T20:29:18.263Z,101792.00
2018-09-02T20:31:47.092Z,101781.00
2018-09-02T20:34:15.979Z,101780.00
2018-09-02T20:36:44.768Z,101781.00
2018-09-02T20:39:13.559Z,101781.00
2018-09-02T20:41:42.548Z,101783.00
2018-09-02T20:44:11.443Z,101788.00
2018-09-02T20:46:40.275Z,101792.00
2018-09-02T20:49:09.086Z,101779.00
2018-09-02T20:51:37.920Z,101782.00
2018-09-02T20:54:06.802Z,101782.00
2018-09-02T20:56:35.615Z,101789.00
2018-09-02T20:59:04.409Z,101787.00
2018-09-02T21:01:33.226Z,101783.00
2018-09-02T21:04:02.204Z,101788.00
2018-09-02T21:06:31.025Z,101777.00
2018-09-02T21:08:59.842Z,101776.00
2018-09-02T21:11:28.647Z,101779.00
2018-09-02T21:13:57.433Z,101776.00
2018-09-02T21:16:26.228Z,101773.00
2018-09-02T21:18:55.043Z,101775.00
2018-09-02T21:21:24.299Z,101769.00
2018-09-02T21:23:53.107Z,101778.00
2018-09-02T21:26:22.013Z,101776.00
2018-09-02T21:28:50.900Z,101767.00
2018-09-02T21:31:19.619Z,101766.00
2018-09-02T21:33:48.444Z,101772.00
2018-09-02T21:36:17.235Z,101771.00
2018-09-02T21:38:46.028Z,101771.00
2018-09-02T21:41:14.842Z,101772.00
2018-09-02T21:43:43.642Z,101776.00
2018-09-02T21:46:12.416Z,101767.00
2018-09-02T21:48:41.330Z,101771.00
2018-09-02T21:51:10.142Z,101774.00
2018-09-02T21:53:39.250Z,101765.00
2018-09-02T21:56:08.053Z,101754.00
2018-09-02T21:58:36.928Z,101759.00
2018-09-02T22:01:05.803Z,101762.00
2018-09-02T22:03:34.687Z,101754.00
2018-09-02T22:06:03.505Z,101745.00
2018-09-02T22:08:32.300Z,101740.00
2018-09-02T22:11:01.223Z,101712.00
2018-09-02T22:13:30.017Z,101741.00
2018-09-02T22:15:58.819Z,101737.00
2018-09-02T22:18:27.622Z,101724.00
2018-09-02T22:20:56.410Z,101735.00
2018-09-02T22:23:25.540Z,101731.00
2018-09-02T22:25:54.321Z,101724.00
2018-09-02T22:28:23.118Z,101728.00
2018-09-02T22:30:51.985Z,101721.00
2018-09-02T22:33:20.927Z,101722.00
2018-09-02T22:35:49.715Z,101713.00
2018-09-02T22:38:18.498Z,101712.00
2018-09-02T22:40:47.305Z,101707.00
2018-09-02T22:43:16.082Z,101714.00
2018-09-02T22:45:44.884Z,101704.00
2018-09-02T22:48:13.699Z,101714.00
2018-09-02T22:50:42.530Z,101704.00
2018-09-02T22:53:11.315Z,101709.00
2018-09-02T22:55:40.303Z,101710.00
2018-09-02T22:58:09.097Z,101714.00
2018-09-02T23:00:37.935Z,101709.00
2018-09-02T23:03:06.772Z,101707.00
2018-09-02T23:05:35.559Z,101708.00
2018-09-02T23:08:04.357Z,101713.00
2018-09-02T23:10:33.182Z,101702.00
2018-09-02T23:13:08.391Z,101699.00
2018-09-02T23:15:37.290Z,101704.00
2018-09-02T23:18:06.081Z,101707.00
2018-09-02T23:20:34.894Z,101695.00
2018-09-02T23:23:03.690Z,101701.00
2018-09-02T23:25:33.140Z,101702.00
2018-09-02T23:28:01.935Z,101697.00
2018-09-02T23:30:30.743Z,101690.00
2018-09-02T23:32:59.535Z,101695.00
2018-09-02T23:35:28.325Z,101697.00
2018-09-02T23:37:57.356Z,101688.00
2018-09-02T23:40:26.179Z,101697.00
2018-09-02T23:42:54.958Z,101683.00
2018-09-02T23:45:23.807Z,101686.00
2018-09-02T23:47:52.652Z,101682.00
2018-09-02T23:50:21.454Z,101684.00
2018-09-02T23:52:50.243Z,101695.00
2018-09-02T23:55:19.024Z,101683.00
2018-09-02T23:57:47.810Z,101681.00
